sensor_id;sensor_type;location;lat;lon;timestamp;pressure;altitude;pressure_sealevel;temperature
10598;BMP180;5346;48.766;8.674;2024-01-30T00:00:33;95269.00;;;5.70
10598;BMP180;5346;48.766;8.674;2024-01-30T00:03:07;95273.00;;;5.40
10598;BMP180;5346;48.766;8.674;2024-01-30T00:05:38;95266.00;;;5.70
10598;BMP180;5346;48.766;8.674;2024-01-30T00:08:21;95268.00;;;5.90
10598;BMP180;5346;48.766;8.674;2024-01-30T00:10:56;95272.00;;;5.90
10598;BMP180;5346;48.766;8.674;2024-01-30T00:13:29;95271.00;;;5.70
10598;BMP180;5346;48.766;8.674;2024-01-30T00:15:59;95267.00;;;6.20
10598;BMP180;5346;48.766;8.674;2024-01-30T00:18:34;95272.00;;;6.00
10598;BMP180;5346;48.766;8.674;2024-01-30T00:21:09;95267.00;;;6.20
10598;BMP180;5346;48.766;8.674;2024-01-30T00:23:43;95277.00;;;5.70
10598;BMP180;5346;48.766;8.674;2024-01-30T00:26:18;95274.00;;;6.10
10598;BMP180;5346;48.766;8.674;2024-01-30T00:28:53;95276.00;;;6.00
10598;BMP180;5346;48.766;8.674;2024-01-30T00:31:21;95276.00;;;5.90
10598;BMP180;5346;48.766;8.674;2024-01-30T00:33:56;95274.00;;;5.60
10598;BMP180;5346;48.766;8.674;2024-01-30T00:36:23;95273.00;;;6.10
10598;BMP180;5346;48.766;8.674;2024-01-30T00:38:57;95277.00;;;6.10
10598;BMP180;5346;48.766;8.674;2024-01-30T00:41:38;95271.00;;;6.10
10598;BMP180;5346;48.766;8.674;2024-01-30T00:44:07;95273.00;;;6.00
10598;BMP180;5346;48.766;8.674;2024-01-30T00:46:40;95268.00;;;6.30
10598;BMP180;5346;48.766;8.674;2024-01-30T00:49:10;95274.00;;;6.20
10598;BMP180;5346;48.766;8.674;2024-01-30T00:51:45;95273.00;;;6.30
10598;BMP180;5346;48.766;8.674;2024-01-30T00:54:19;95268.00;;;6.20
10598;BMP180;5346;48.766;8.674;2024-01-30T00:56:49;95277.00;;;6.50
10598;BMP180;5346;48.766;8.674;2024-01-30T00:59:17;95268.00;;;6.40
10598;BMP180;5346;48.766;8.674;2024-01-30T01:01:52;95270.00;;;6.00
10598;BMP180;5346;48.766;8.674;2024-01-30T01:04:20;95273.00;;;6.10
10598;BMP180;5346;48.766;8.674;2024-01-30T01:06:55;95267.00;;;6.40
10598;BMP180;5346;48.766;8.674;2024-01-30T01:09:24;95272.00;;;6.50
10598;BMP180;5346;48.766;8.674;2024-01-30T01:11:59;95267.00;;;6.50
10598;BMP180;5346;48.766;8.674;2024-01-30T01:14:34;95266.00;;;6.60
10598;BMP180;5346;48.766;8.674;2024-01-30T01:17:02;95261.00;;;6.80
10598;BMP180;5346;48.766;8.674;2024-01-30T01:19:35;95276.00;;;6.80
10598;BMP180;5346;48.766;8.674;2024-01-30T01:22:10;95255.00;;;6.70
10598;BMP180;5346;48.766;8.674;2024-01-30T01:24:44;95264.00;;;6.60
10598;BMP180;5346;48.766;8.674;2024-01-30T01:27:12;95255.00;;;6.60
10598;BMP180;5346;48.766;8.674;2024-01-30T01:29:46;95255.00;;;6.50
10598;BMP180;5346;48.766;8.674;2024-01-30T01:32:15;95246.00;;;6.80
10598;BMP180;5346;48.766;8.674;2024-01-30T01:34:50;95253.00;;;6.90
10598;BMP180;5346;48.766;8.674;2024-01-30T01:37:25;95245.00;;;6.70
10598;BMP180;5346;48.766;8.674;2024-01-30T01:40:01;95253.00;;;6.60
10598;BMP180;5346;48.766;8.674;2024-01-30T01:42:35;95248.00;;;6.70
10598;BMP180;5346;48.766;8.674;2024-01-30T01:45:10;95248.00;;;6.90
10598;BMP180;5346;48.766;8.674;2024-01-30T01:47:44;95247.00;;;7.00
10598;BMP180;5346;48.766;8.674;2024-01-30T01:50:22;95253.00;;;7.00
10598;BMP180;5346;48.766;8.674;2024-01-30T01:52:57;95263.00;;;6.70
10598;BMP180;5346;48.766;8.674;2024-01-30T01:55:33;95267.00;;;5.90
10598;BMP180;5346;48.766;8.674;2024-01-30T01:58:08;95271.00;;;5.10
10598;BMP180;5346;48.766;8.674;2024-01-30T02:00:43;95265.00;;;4.50
10598;BMP180;5346;48.766;8.674;2024-01-30T02:03:14;95267.00;;;4.10
10598;BMP180;5346;48.766;8.674;2024-01-30T02:05:52;95264.00;;;3.80
10598;BMP180;5346;48.766;8.674;2024-01-30T02:08:24;95262.00;;;3.60
10598;BMP180;5346;48.766;8.674;2024-01-30T02:11:05;95268.00;;;3.50
10598;BMP180;5346;48.766;8.674;2024-01-30T02:13:33;95268.00;;;3.60
10598;BMP180;5346;48.766;8.674;2024-01-30T02:16:08;95269.00;;;3.60
10598;BMP180;5346;48.766;8.674;2024-01-30T02:18:36;95269.00;;;3.50
10598;BMP180;5346;48.766;8.674;2024-01-30T02:21:19;95271.00;;;3.40
10598;BMP180;5346;48.766;8.674;2024-01-30T02:23:47;95272.00;;;3.40
10598;BMP180;5346;48.766;8.674;2024-01-30T02:26:23;95268.00;;;3.40
10598;BMP180;5346;48.766;8.674;2024-01-30T02:28:51;95278.00;;;3.30
10598;BMP180;5346;48.766;8.674;2024-01-30T02:31:25;95278.00;;;3.40
10598;BMP180;5346;48.766;8.674;2024-01-30T02:33:54;95275.00;;;3.50
10598;BMP180;5346;48.766;8.674;2024-01-30T02:36:27;95276.00;;;3.50
10598;BMP180;5346;48.766;8.674;2024-01-30T02:39:03;95280.00;;;3.50
10598;BMP180;5346;48.766;8.674;2024-01-30T02:41:38;95271.00;;;3.60
10598;BMP180;5346;48.766;8.674;2024-01-30T02:44:12;95273.00;;;3.50
10598;BMP180;5346;48.766;8.674;2024-01-30T02:46:39;95281.00;;;3.30
10598;BMP180;5346;48.766;8.674;2024-01-30T02:49:14;95283.00;;;3.40
10598;BMP180;5346;48.766;8.674;2024-01-30T02:51:42;95272.00;;;3.60
10598;BMP180;5346;48.766;8.674;2024-01-30T02:54:16;95270.00;;;3.90
10598;BMP180;5346;48.766;8.674;2024-01-30T02:56:50;95264.00;;;4.10
10598;BMP180;5346;48.766;8.674;2024-01-30T02:59:24;95270.00;;;4.30
10598;BMP180;5346;48.766;8.674;2024-01-30T03:01:58;95269.00;;;4.50
10598;BMP180;5346;48.766;8.674;2024-01-30T03:04:33;95263.00;;;4.20
10598;BMP180;5346;48.766;8.674;2024-01-30T03:07:08;95259.00;;;4.10
10598;BMP180;5346;48.766;8.674;2024-01-30T03:09:43;95260.00;;;3.90
10598;BMP180;5346;48.766;8.674;2024-01-30T03:12:17;95262.00;;;4.00
10598;BMP180;5346;48.766;8.674;2024-01-30T03:14:51;95266.00;;;3.90
10598;BMP180;5346;48.766;8.674;2024-01-30T03:17:26;95258.00;;;4.20
10598;BMP180;5346;48.766;8.674;2024-01-30T03:20:00;95253.00;;;4.20
10598;BMP180;5346;48.766;8.674;2024-01-30T03:22:35;95249.00;;;4.30
10598;BMP180;5346;48.766;8.674;2024-01-30T03:25:08;95252.00;;;4.20
10598;BMP180;5346;48.766;8.674;2024-01-30T03:27:42;95265.00;;;4.00
10598;BMP180;5346;48.766;8.674;2024-01-30T03:30:13;95260.00;;;4.60
10598;BMP180;5346;48.766;8.674;2024-01-30T03:32:46;95258.00;;;4.60
10598;BMP180;5346;48.766;8.674;2024-01-30T03:35:14;95243.00;;;5.30
10598;BMP180;5346;48.766;8.674;2024-01-30T03:37:48;95250.00;;;5.00
10598;BMP180;5346;48.766;8.674;2024-01-30T03:40:25;95251.00;;;5.00
10598;BMP180;5346;48.766;8.674;2024-01-30T03:42:52;95252.00;;;4.80
10598;BMP180;5346;48.766;8.674;2024-01-30T03:45:27;95244.00;;;5.00
10598;BMP180;5346;48.766;8.674;2024-01-30T03:47:54;95256.00;;;5.00
10598;BMP180;5346;48.766;8.674;2024-01-30T03:50:22;95252.00;;;5.30
10598;BMP180;5346;48.766;8.674;2024-01-30T03:53:04;95253.00;;;5.00
10598;BMP180;5346;48.766;8.674;2024-01-30T03:55:31;95254.00;;;5.20
10598;BMP180;5346;48.766;8.674;2024-01-30T03:58:05;95247.00;;;5.40
10598;BMP180;5346;48.766;8.674;2024-01-30T04:00:33;95255.00;;;5.10
10598;BMP180;5346;48.766;8.674;2024-01-30T04:03:08;95255.00;;;5.10
10598;BMP180;5346;48.766;8.674;2024-01-30T04:05:42;95256.00;;;5.30
10598;BMP180;5346;48.766;8.674;2024-01-30T04:08:23;95265.00;;;5.30
10598;BMP180;5346;48.766;8.674;2024-01-30T04:11:06;95254.00;;;5.40
10598;BMP180;5346;48.766;8.674;2024-01-30T04:13:41;95264.00;;;4.90
10598;BMP180;5346;48.766;8.674;2024-01-30T04:16:22;95260.00;;;5.00
10598;BMP180;5346;48.766;8.674;2024-01-30T04:18:57;95253.00;;;5.00
10598;BMP180;5346;48.766;8.674;2024-01-30T04:21:25;95252.00;;;5.10
10598;BMP180;5346;48.766;8.674;2024-01-30T04:24:00;95256.00;;;5.40
10598;BMP180;5346;48.766;8.674;2024-01-30T04:26:27;95255.00;;;5.00
10598;BMP180;5346;48.766;8.674;2024-01-30T04:29:01;95252.00;;;5.00
10598;BMP180;5346;48.766;8.674;2024-01-30T04:31:31;95256.00;;;5.20
10598;BMP180;5346;48.766;8.674;2024-01-30T04:34:04;95254.00;;;5.20
10598;BMP180;5346;48.766;8.674;2024-01-30T04:36:39;95253.00;;;5.10
10598;BMP180;5346;48.766;8.674;2024-01-30T04:39:13;95261.00;;;5.20
10598;BMP180;5346;48.766;8.674;2024-01-30T04:41:41;95257.00;;;5.20
10598;BMP180;5346;48.766;8.674;2024-01-30T04:44:09;95261.00;;;5.20
10598;BMP180;5346;48.766;8.674;2024-01-30T04:46:44;95257.00;;;5.40
10598;BMP180;5346;48.766;8.674;2024-01-30T04:49:11;95263.00;;;5.60
10598;BMP180;5346;48.766;8.674;2024-01-30T04:51:46;95260.00;;;5.50
10598;BMP180;5346;48.766;8.674;2024-01-30T04:54:13;95251.00;;;5.40
10598;BMP180;5346;48.766;8.674;2024-01-30T04:56:47;95243.00;;;5.60
10598;BMP180;5346;48.766;8.674;2024-01-30T04:59:21;95253.00;;;5.50
10598;BMP180;5346;48.766;8.674;2024-01-30T05:01:55;95248.00;;;5.30
10598;BMP180;5346;48.766;8.674;2024-01-30T05:04:30;95252.00;;;5.30
10598;BMP180;5346;48.766;8.674;2024-01-30T05:06:58;95259.00;;;5.30
10598;BMP180;5346;48.766;8.674;2024-01-30T05:09:28;95250.00;;;5.40
10598;BMP180;5346;48.766;8.674;2024-01-30T05:12:09;95253.00;;;5.40
10598;BMP180;5346;48.766;8.674;2024-01-30T05:14:37;95247.00;;;5.50
10598;BMP180;5346;48.766;8.674;2024-01-30T05:17:11;95256.00;;;5.40
10598;BMP180;5346;48.766;8.674;2024-01-30T05:19:47;95254.00;;;5.30
10598;BMP180;5346;48.766;8.674;2024-01-30T05:22:22;95249.00;;;5.40
10598;BMP180;5346;48.766;8.674;2024-01-30T05:24:50;95255.00;;;5.40
10598;BMP180;5346;48.766;8.674;2024-01-30T05:27:24;95256.00;;;5.00
10598;BMP180;5346;48.766;8.674;2024-01-30T05:29:52;95260.00;;;5.50
10598;BMP180;5346;48.766;8.674;2024-01-30T05:32:26;95247.00;;;5.40
10598;BMP180;5346;48.766;8.674;2024-01-30T05:34:53;95267.00;;;5.20
10598;BMP180;5346;48.766;8.674;2024-01-30T05:37:29;95255.00;;;5.30
10598;BMP180;5346;48.766;8.674;2024-01-30T05:39:56;95259.00;;;5.30
10598;BMP180;5346;48.766;8.674;2024-01-30T05:42:31;95268.00;;;5.30
10598;BMP180;5346;48.766;8.674;2024-01-30T05:45:06;95270.00;;;5.20
10598;BMP180;5346;48.766;8.674;2024-01-30T05:47:40;95271.00;;;5.10
10598;BMP180;5346;48.766;8.674;2024-01-30T05:50:08;95268.00;;;5.10
10598;BMP180;5346;48.766;8.674;2024-01-30T05:52:41;95276.00;;;4.80
10598;BMP180;5346;48.766;8.674;2024-01-30T05:55:15;95267.00;;;5.00
10598;BMP180;5346;48.766;8.674;2024-01-30T05:57:50;95264.00;;;4.90
10598;BMP180;5346;48.766;8.674;2024-01-30T06:00:19;95276.00;;;4.70
10598;BMP180;5346;48.766;8.674;2024-01-30T06:02:53;95268.00;;;5.00
10598;BMP180;5346;48.766;8.674;2024-01-30T06:05:23;95272.00;;;5.00
10598;BMP180;5346;48.766;8.674;2024-01-30T06:08:02;95265.00;;;5.10
10598;BMP180;5346;48.766;8.674;2024-01-30T06:10:30;95270.00;;;5.30
10598;BMP180;5346;48.766;8.674;2024-01-30T06:13:10;95274.00;;;5.60
10598;BMP180;5346;48.766;8.674;2024-01-30T06:15:38;95271.00;;;5.50
10598;BMP180;5346;48.766;8.674;2024-01-30T06:18:13;95265.00;;;5.80
10598;BMP180;5346;48.766;8.674;2024-01-30T06:20:40;95265.00;;;5.90
10598;BMP180;5346;48.766;8.674;2024-01-30T06:23:14;95270.00;;;5.90
10598;BMP180;5346;48.766;8.674;2024-01-30T06:25:42;95267.00;;;5.70
10598;BMP180;5346;48.766;8.674;2024-01-30T06:28:18;95279.00;;;5.80
10598;BMP180;5346;48.766;8.674;2024-01-30T06:30:47;95267.00;;;5.90
10598;BMP180;5346;48.766;8.674;2024-01-30T06:33:21;95270.00;;;5.90
10598;BMP180;5346;48.766;8.674;2024-01-30T06:35:49;95268.00;;;5.60
10598;BMP180;5346;48.766;8.674;2024-01-30T06:38:22;95266.00;;;5.60
10598;BMP180;5346;48.766;8.674;2024-01-30T06:40:57;95269.00;;;5.80
10598;BMP180;5346;48.766;8.674;2024-01-30T06:43:24;95269.00;;;5.90
10598;BMP180;5346;48.766;8.674;2024-01-30T06:45:58;95266.00;;;5.90
10598;BMP180;5346;48.766;8.674;2024-01-30T06:48:33;95264.00;;;6.30
10598;BMP180;5346;48.766;8.674;2024-01-30T06:51:00;95263.00;;;6.30
10598;BMP180;5346;48.766;8.674;2024-01-30T06:53:34;95261.00;;;6.00
10598;BMP180;5346;48.766;8.674;2024-01-30T06:56:08;95266.00;;;6.10
10598;BMP180;5346;48.766;8.674;2024-01-30T06:58:42;95264.00;;;5.90
10598;BMP180;5346;48.766;8.674;2024-01-30T07:01:10;95269.00;;;6.30
10598;BMP180;5346;48.766;8.674;2024-01-30T07:03:47;95270.00;;;6.00
10598;BMP180;5346;48.766;8.674;2024-01-30T07:06:16;95262.00;;;6.50
10598;BMP180;5346;48.766;8.674;2024-01-30T07:08:57;95266.00;;;6.40
10598;BMP180;5346;48.766;8.674;2024-01-30T07:11:39;95275.00;;;6.50
10598;BMP180;5346;48.766;8.674;2024-01-30T07:14:13;95265.00;;;6.70
10598;BMP180;5346;48.766;8.674;2024-01-30T07:16:40;95268.00;;;6.90
10598;BMP180;5346;48.766;8.674;2024-01-30T07:19:15;95266.00;;;6.80
10598;BMP180;5346;48.766;8.674;2024-01-30T07:21:49;95268.00;;;6.80
10598;BMP180;5346;48.766;8.674;2024-01-30T07:24:23;95267.00;;;6.80
10598;BMP180;5346;48.766;8.674;2024-01-30T07:26:56;95265.00;;;6.90
10598;BMP180;5346;48.766;8.674;2024-01-30T07:29:32;95266.00;;;7.10
10598;BMP180;5346;48.766;8.674;2024-01-30T07:32:07;95266.00;;;7.10
10598;BMP180;5346;48.766;8.674;2024-01-30T07:34:41;95272.00;;;7.10
10598;BMP180;5346;48.766;8.674;2024-01-30T07:37:33;95274.00;;;7.10
10598;BMP180;5346;48.766;8.674;2024-01-30T07:40:08;95276.00;;;7.30
10598;BMP180;5346;48.766;8.674;2024-01-30T07:42:45;95277.00;;;7.50
10598;BMP180;5346;48.766;8.674;2024-01-30T07:45:19;95270.00;;;7.60
10598;BMP180;5346;48.766;8.674;2024-01-30T07:47:52;95279.00;;;7.80
10598;BMP180;5346;48.766;8.674;2024-01-30T07:50:26;95285.00;;;7.80
10598;BMP180;5346;48.766;8.674;2024-01-30T07:52:58;95272.00;;;7.70
10598;BMP180;5346;48.766;8.674;2024-01-30T07:55:33;95289.00;;;7.50
10598;BMP180;5346;48.766;8.674;2024-01-30T07:58:01;95283.00;;;7.60
10598;BMP180;5346;48.766;8.674;2024-01-30T08:00:35;95286.00;;;7.70
10598;BMP180;5346;48.766;8.674;2024-01-30T08:03:03;95265.00;;;8.00
10598;BMP180;5346;48.766;8.674;2024-01-30T08:05:44;95269.00;;;8.80
10598;BMP180;5346;48.766;8.674;2024-01-30T08:08:18;95273.00;;;8.90
10598;BMP180;5346;48.766;8.674;2024-01-30T08:10:54;95277.00;;;8.70
10598;BMP180;5346;48.766;8.674;2024-01-30T08:13:33;95280.00;;;8.90
10598;BMP180;5346;48.766;8.674;2024-01-30T08:16:07;95281.00;;;8.80
10598;BMP180;5346;48.766;8.674;2024-01-30T08:18:40;95291.00;;;8.80
10598;BMP180;5346;48.766;8.674;2024-01-30T08:21:15;95282.00;;;8.90
10598;BMP180;5346;48.766;8.674;2024-01-30T08:23:42;95288.00;;;9.00
10598;BMP180;5346;48.766;8.674;2024-01-30T08:26:18;95290.00;;;9.10
10598;BMP180;5346;48.766;8.674;2024-01-30T08:28:52;95283.00;;;9.50
10598;BMP180;5346;48.766;8.674;2024-01-30T08:31:28;95278.00;;;9.90
10598;BMP180;5346;48.766;8.674;2024-01-30T08:34:02;95283.00;;;10.30
10598;BMP180;5346;48.766;8.674;2024-01-30T08:36:36;95293.00;;;10.40
10598;BMP180;5346;48.766;8.674;2024-01-30T08:39:11;95286.00;;;10.60
10598;BMP180;5346;48.766;8.674;2024-01-30T08:41:45;95297.00;;;10.90
10598;BMP180;5346;48.766;8.674;2024-01-30T08:44:13;95300.00;;;10.80
10598;BMP180;5346;48.766;8.674;2024-01-30T08:46:47;95296.00;;;10.80
10598;BMP180;5346;48.766;8.674;2024-01-30T08:49:18;95293.00;;;11.00
10598;BMP180;5346;48.766;8.674;2024-01-30T08:51:52;95307.00;;;11.30
10598;BMP180;5346;48.766;8.674;2024-01-30T08:54:20;95299.00;;;10.90
10598;BMP180;5346;48.766;8.674;2024-01-30T08:56:55;95309.00;;;11.00
10598;BMP180;5346;48.766;8.674;2024-01-30T08:59:32;95303.00;;;11.00
10598;BMP180;5346;48.766;8.674;2024-01-30T09:02:08;95311.00;;;11.00
10598;BMP180;5346;48.766;8.674;2024-01-30T09:04:39;95312.00;;;10.90
10598;BMP180;5346;48.766;8.674;2024-01-30T09:07:08;95315.00;;;10.90
10598;BMP180;5346;48.766;8.674;2024-01-30T09:09:43;95318.00;;;10.90
10598;BMP180;5346;48.766;8.674;2024-01-30T09:12:23;95311.00;;;10.90
10598;BMP180;5346;48.766;8.674;2024-01-30T09:14:58;95316.00;;;11.00
10598;BMP180;5346;48.766;8.674;2024-01-30T09:17:28;95320.00;;;10.80
10598;BMP180;5346;48.766;8.674;2024-01-30T09:20:02;95321.00;;;10.70
10598;BMP180;5346;48.766;8.674;2024-01-30T09:22:29;95314.00;;;10.90
10598;BMP180;5346;48.766;8.674;2024-01-30T09:25:04;95319.00;;;11.00
10598;BMP180;5346;48.766;8.674;2024-01-30T09:27:38;95312.00;;;10.90
10598;BMP180;5346;48.766;8.674;2024-01-30T09:30:12;95323.00;;;11.20
10598;BMP180;5346;48.766;8.674;2024-01-30T09:32:42;95323.00;;;11.30
10598;BMP180;5346;48.766;8.674;2024-01-30T09:35:17;95323.00;;;11.10
10598;BMP180;5346;48.766;8.674;2024-01-30T09:37:44;95325.00;;;10.90
10598;BMP180;5346;48.766;8.674;2024-01-30T09:40:25;95329.00;;;11.10
10598;BMP180;5346;48.766;8.674;2024-01-30T09:43:00;95338.00;;;11.40
10598;BMP180;5346;48.766;8.674;2024-01-30T09:45:34;95339.00;;;11.00
10598;BMP180;5346;48.766;8.674;2024-01-30T09:48:04;95342.00;;;11.10
10598;BMP180;5346;48.766;8.674;2024-01-30T09:50:32;95338.00;;;11.00
10598;BMP180;5346;48.766;8.674;2024-01-30T09:53:10;95344.00;;;11.30
10598;BMP180;5346;48.766;8.674;2024-01-30T09:55:39;95340.00;;;11.20
10598;BMP180;5346;48.766;8.674;2024-01-30T09:58:24;95346.00;;;11.20
10598;BMP180;5346;48.766;8.674;2024-01-30T10:00:53;95342.00;;;11.60
10598;BMP180;5346;48.766;8.674;2024-01-30T10:03:28;95339.00;;;11.20
10598;BMP180;5346;48.766;8.674;2024-01-30T10:05:56;95341.00;;;11.70
10598;BMP180;5346;48.766;8.674;2024-01-30T10:08:31;95346.00;;;12.00
10598;BMP180;5346;48.766;8.674;2024-01-30T10:11:05;95346.00;;;12.30
10598;BMP180;5346;48.766;8.674;2024-01-30T10:13:40;95338.00;;;12.30
10598;BMP180;5346;48.766;8.674;2024-01-30T10:16:15;95332.00;;;12.80
10598;BMP180;5346;48.766;8.674;2024-01-30T10:18:51;95325.00;;;13.50
10598;BMP180;5346;48.766;8.674;2024-01-30T10:21:20;95330.00;;;14.00
10598;BMP180;5346;48.766;8.674;2024-01-30T10:23:55;95327.00;;;14.40
10598;BMP180;5346;48.766;8.674;2024-01-30T10:26:28;95333.00;;;13.80
10598;BMP180;5346;48.766;8.674;2024-01-30T10:29:02;95323.00;;;14.30
10598;BMP180;5346;48.766;8.674;2024-01-30T10:31:37;95336.00;;;14.30
10598;BMP180;5346;48.766;8.674;2024-01-30T10:34:05;95344.00;;;14.00
10598;BMP180;5346;48.766;8.674;2024-01-30T10:36:50;95337.00;;;12.20
10598;BMP180;5346;48.766;8.674;2024-01-30T10:39:30;95344.00;;;13.30
10598;BMP180;5346;48.766;8.674;2024-01-30T10:42:07;95337.00;;;13.40
10598;BMP180;5346;48.766;8.674;2024-01-30T10:47:25;95343.00;;;13.10
10598;BMP180;5346;48.766;8.674;2024-01-30T10:50:00;95333.00;;;12.90
10598;BMP180;5346;48.766;8.674;2024-01-30T10:52:35;95327.00;;;12.80
10598;BMP180;5346;48.766;8.674;2024-01-30T10:55:10;95339.00;;;13.10
10598;BMP180;5346;48.766;8.674;2024-01-30T10:57:38;95334.00;;;13.30
10598;BMP180;5346;48.766;8.674;2024-01-30T11:00:15;95340.00;;;13.30
10598;BMP180;5346;48.766;8.674;2024-01-30T11:02:45;95336.00;;;13.20
10598;BMP180;5346;48.766;8.674;2024-01-30T11:05:26;95328.00;;;13.70
10598;BMP180;5346;48.766;8.674;2024-01-30T11:08:11;95333.00;;;13.10
10598;BMP180;5346;48.766;8.674;2024-01-30T11:10:49;95332.00;;;13.10
10598;BMP180;5346;48.766;8.674;2024-01-30T11:13:26;95326.00;;;13.20
10598;BMP180;5346;48.766;8.674;2024-01-30T11:16:04;95323.00;;;13.10
10598;BMP180;5346;48.766;8.674;2024-01-30T11:18:39;95324.00;;;13.30
10598;BMP180;5346;48.766;8.674;2024-01-30T11:21:06;95320.00;;;13.60
10598;BMP180;5346;48.766;8.674;2024-01-30T11:23:41;95326.00;;;13.70
10598;BMP180;5346;48.766;8.674;2024-01-30T11:26:13;95320.00;;;13.60
10598;BMP180;5346;48.766;8.674;2024-01-30T11:28:53;95331.00;;;13.90
10598;BMP180;5346;48.766;8.674;2024-01-30T11:31:21;95324.00;;;13.90
10598;BMP180;5346;48.766;8.674;2024-01-30T11:33:57;95324.00;;;14.20
10598;BMP180;5346;48.766;8.674;2024-01-30T11:36:26;95317.00;;;12.90
10598;BMP180;5346;48.766;8.674;2024-01-30T11:39:01;95325.00;;;13.80
10598;BMP180;5346;48.766;8.674;2024-01-30T11:41:30;95315.00;;;14.70
10598;BMP180;5346;48.766;8.674;2024-01-30T11:44:04;95317.00;;;15.30
10598;BMP180;5346;48.766;8.674;2024-01-30T11:46:33;95311.00;;;14.70
10598;BMP180;5346;48.766;8.674;2024-01-30T11:49:09;95318.00;;;15.80
10598;BMP180;5346;48.766;8.674;2024-01-30T11:51:37;95310.00;;;16.00
10598;BMP180;5346;48.766;8.674;2024-01-30T11:54:12;95296.00;;;17.50
10598;BMP180;5346;48.766;8.674;2024-01-30T11:56:39;95287.00;;;17.10
10598;BMP180;5346;48.766;8.674;2024-01-30T11:59:14;95289.00;;;17.30
10598;BMP180;5346;48.766;8.674;2024-01-30T12:01:51;95287.00;;;18.80
10598;BMP180;5346;48.766;8.674;2024-01-30T12:04:28;95292.00;;;19.10
10598;BMP180;5346;48.766;8.674;2024-01-30T12:07:03;95301.00;;;18.40
10598;BMP180;5346;48.766;8.674;2024-01-30T12:09:31;95289.00;;;18.60
10598;BMP180;5346;48.766;8.674;2024-01-30T12:12:12;95282.00;;;17.70
10598;BMP180;5346;48.766;8.674;2024-01-30T12:14:42;95277.00;;;18.40
10598;BMP180;5346;48.766;8.674;2024-01-30T12:17:30;95279.00;;;19.90
10598;BMP180;5346;48.766;8.674;2024-01-30T12:20:10;95267.00;;;20.80
10598;BMP180;5346;48.766;8.674;2024-01-30T12:22:47;95261.00;;;22.50
10598;BMP180;5346;48.766;8.674;2024-01-30T12:25:22;95268.00;;;21.90
10598;BMP180;5346;48.766;8.674;2024-01-30T12:27:51;95270.00;;;21.10
10598;BMP180;5346;48.766;8.674;2024-01-30T12:30:25;95278.00;;;19.80
10598;BMP180;5346;48.766;8.674;2024-01-30T12:32:53;95269.00;;;21.50
10598;BMP180;5346;48.766;8.674;2024-01-30T12:35:27;95276.00;;;19.90
10598;BMP180;5346;48.766;8.674;2024-01-30T12:37:59;95266.00;;;20.90
10598;BMP180;5346;48.766;8.674;2024-01-30T12:40:34;95270.00;;;21.30
10598;BMP180;5346;48.766;8.674;2024-01-30T12:43:03;95266.00;;;22.30
10598;BMP180;5346;48.766;8.674;2024-01-30T12:45:38;95275.00;;;22.70
10598;BMP180;5346;48.766;8.674;2024-01-30T12:48:12;95285.00;;;21.10
10598;BMP180;5346;48.766;8.674;2024-01-30T12:50:46;95276.00;;;21.90
10598;BMP180;5346;48.766;8.674;2024-01-30T12:53:20;95291.00;;;17.90
10598;BMP180;5346;48.766;8.674;2024-01-30T12:55:54;95292.00;;;18.90
10598;BMP180;5346;48.766;8.674;2024-01-30T12:58:22;95287.00;;;20.10
10598;BMP180;5346;48.766;8.674;2024-01-30T13:00:56;95284.00;;;18.20
10598;BMP180;5346;48.766;8.674;2024-01-30T13:03:30;95293.00;;;17.70
10598;BMP180;5346;48.766;8.674;2024-01-30T13:06:05;95292.00;;;19.00
10598;BMP180;5346;48.766;8.674;2024-01-30T13:08:33;95271.00;;;18.50
10598;BMP180;5346;48.766;8.674;2024-01-30T13:11:07;95287.00;;;19.30
10598;BMP180;5346;48.766;8.674;2024-01-30T13:13:49;95290.00;;;19.10
10598;BMP180;5346;48.766;8.674;2024-01-30T13:16:17;95295.00;;;18.40
10598;BMP180;5346;48.766;8.674;2024-01-30T13:18:52;95300.00;;;19.00
10598;BMP180;5346;48.766;8.674;2024-01-30T13:21:29;95303.00;;;17.90
10598;BMP180;5346;48.766;8.674;2024-01-30T13:24:04;95302.00;;;17.70
10598;BMP180;5346;48.766;8.674;2024-01-30T13:26:39;95296.00;;;18.10
10598;BMP180;5346;48.766;8.674;2024-01-30T13:29:13;95293.00;;;18.00
10598;BMP180;5346;48.766;8.674;2024-01-30T13:31:40;95283.00;;;18.20
10598;BMP180;5346;48.766;8.674;2024-01-30T13:34:15;95285.00;;;19.30
10598;BMP180;5346;48.766;8.674;2024-01-30T13:36:49;95290.00;;;19.00
10598;BMP180;5346;48.766;8.674;2024-01-30T13:39:17;95296.00;;;17.50
10598;BMP180;5346;48.766;8.674;2024-01-30T13:41:59;95293.00;;;15.10
10598;BMP180;5346;48.766;8.674;2024-01-30T13:44:27;95292.00;;;16.40
10598;BMP180;5346;48.766;8.674;2024-01-30T13:47:02;95295.00;;;17.70
10598;BMP180;5346;48.766;8.674;2024-01-30T13:49:30;95297.00;;;17.60
10598;BMP180;5346;48.766;8.674;2024-01-30T13:52:04;95306.00;;;16.50
10598;BMP180;5346;48.766;8.674;2024-01-30T13:54:34;95311.00;;;16.30
10598;BMP180;5346;48.766;8.674;2024-01-30T13:57:09;95316.00;;;16.60
10598;BMP180;5346;48.766;8.674;2024-01-30T13:59:44;95315.00;;;16.50
10598;BMP180;5346;48.766;8.674;2024-01-30T14:02:12;95316.00;;;16.40
10598;BMP180;5346;48.766;8.674;2024-01-30T14:04:47;95319.00;;;15.90
10598;BMP180;5346;48.766;8.674;2024-01-30T14:07:15;95320.00;;;16.20
10598;BMP180;5346;48.766;8.674;2024-01-30T14:09:49;95327.00;;;15.60
10598;BMP180;5346;48.766;8.674;2024-01-30T14:12:29;95327.00;;;15.10
10598;BMP180;5346;48.766;8.674;2024-01-30T14:15:04;95329.00;;;14.90
10598;BMP180;5346;48.766;8.674;2024-01-30T14:17:53;95334.00;;;14.80
10598;BMP180;5346;48.766;8.674;2024-01-30T14:20:21;95343.00;;;14.60
10598;BMP180;5346;48.766;8.674;2024-01-30T14:22:56;95339.00;;;14.10
10598;BMP180;5346;48.766;8.674;2024-01-30T14:25:31;95346.00;;;14.20
10598;BMP180;5346;48.766;8.674;2024-01-30T14:28:05;95350.00;;;14.00
10598;BMP180;5346;48.766;8.674;2024-01-30T14:30:34;95343.00;;;13.30
10598;BMP180;5346;48.766;8.674;2024-01-30T14:33:11;95349.00;;;13.10
10598;BMP180;5346;48.766;8.674;2024-01-30T14:35:39;95340.00;;;13.20
10598;BMP180;5346;48.766;8.674;2024-01-30T14:38:14;95341.00;;;12.90
10598;BMP180;5346;48.766;8.674;2024-01-30T14:40:42;95348.00;;;12.80
10598;BMP180;5346;48.766;8.674;2024-01-30T14:43:17;95349.00;;;12.70
10598;BMP180;5346;48.766;8.674;2024-01-30T14:45:45;95350.00;;;12.30
10598;BMP180;5346;48.766;8.674;2024-01-30T14:48:21;95360.00;;;12.20
10598;BMP180;5346;48.766;8.674;2024-01-30T14:50:49;95355.00;;;12.10
10598;BMP180;5346;48.766;8.674;2024-01-30T14:53:23;95357.00;;;11.90
10598;BMP180;5346;48.766;8.674;2024-01-30T14:55:57;95349.00;;;11.80
10598;BMP180;5346;48.766;8.674;2024-01-30T14:58:24;95364.00;;;11.30
10598;BMP180;5346;48.766;8.674;2024-01-30T15:00:59;95350.00;;;11.40
10598;BMP180;5346;48.766;8.674;2024-01-30T15:03:28;95351.00;;;11.50
10598;BMP180;5346;48.766;8.674;2024-01-30T15:06:05;95351.00;;;11.10